Ship Status Report: callsign SLRE

sailwx.info

Track history (hours):
 
Tides and Currents Weather Stations Pressure Air Temp Water Temp Dewpoint Dewpoint Depression Visibility Wind Speed Wind Dir Waves Ship Positions

Callsign SLRE (name unknown)

Last reported at 2017-Mar-25 13:12 UTC. Time now 2017-Mar-29 15:18 UTC.
Position N 56°00' E 015°44'.

AWS

Date/timePositionNaut miles runAvg speedWind from/ knotsBaromVisibWave heightAir tempDewpointWater temp
2017-Mar-25 13:12N 56°00' E 015°44'5 8.6
2017-Mar-25 12:33N 56°03' E 015°36'7 6.6
2017-Mar-25 11:33N 56°10' E 015°34'0 0.0
2017-Mar-25 10:33N 56°10' E 015°34'0 0.0
2017-Mar-25 09:33N 56°10' E 015°34'0 0.0
2017-Mar-25 08:33N 56°10' E 015°34'0 0.0
2017-Mar-25 07:33N 56°10' E 015°34'0 0.0
2017-Mar-25 06:33N 56°10' E 015°34'0 0.0
2017-Mar-25 05:33N 56°10' E 015°34'0 0.0
2017-Mar-25 04:33N 56°10' E 015°34'0 0.0
2017-Mar-25 03:33N 56°10' E 015°34'0 0.0
2017-Mar-25 02:33N 56°10' E 015°34'3 3.5
2017-Mar-25 01:33N 56°06' E 015°34'8 8.0
2017-Mar-25 00:33N 56°00' E 015°44'9 8.8
2017-Mar-24 23:33N 55°57' E 015°59'9 9.1
2017-Mar-24 22:33N 55°54' E 016°14'36 9.0
2017-Mar-24 18:33N 55°43' E 017°15'  
2017-Mar-20 20:33N 55°54' E 016°31'8 8.0
2017-Mar-20 19:33N 55°57' E 016°18'8 8.4
2017-Mar-20 18:33N 55°58' E 016°03'9 8.6
2017-Mar-20 17:33N 55°59' E 015°47'9 8.7
2017-Mar-20 16:33N 56°04' E 015°34'6 5.7
2017-Mar-20 15:33N 56°10' E 015°34'0 0.0
2017-Mar-20 14:33N 56°10' E 015°34'0 0.0
2017-Mar-20 13:33N 56°10' E 015°34'0 0.0
2017-Mar-20 12:33N 56°10' E 015°34'0 0.0
2017-Mar-20 11:33N 56°10' E 015°34'0 0.0
2017-Mar-20 10:33N 56°10' E 015°34'0 0.0
2017-Mar-20 09:33N 56°10' E 015°34'0 0.0
2017-Mar-20 08:33N 56°10' E 015°34'0 0.0
2017-Mar-20 07:33N 56°10' E 015°34'0 0.0
2017-Mar-20 06:33N 56°10' E 015°34'0 0.0
2017-Mar-20 05:33N 56°10' E 015°34'0 0.0
2017-Mar-20 04:33N 56°10' E 015°34'0 0.0
2017-Mar-20 03:33N 56°10' E 015°34'0 0.0
2017-Mar-20 02:33N 56°10' E 015°34'0 0.0
2017-Mar-20 01:33N 56°10' E 015°34'0 0.0
2017-Mar-20 00:33N 56°10' E 015°34'0 0.0
2017-Mar-19 23:33N 56°10' E 015°34'0 0.0
2017-Mar-19 22:33N 56°10' E 015°34'0 0.0
2017-Mar-19 21:33N 56°10' E 015°34'0 0.0
2017-Mar-19 20:33N 56°10' E 015°34'0 0.0
2017-Mar-19 19:33N 56°10' E 015°34'0 0.0
2017-Mar-19 18:33N 56°10' E 015°34'0 0.0
2017-Mar-19 17:33N 56°10' E 015°34'0 0.0
2017-Mar-19 16:33N 56°10' E 015°34'0 0.0
2017-Mar-19 15:33N 56°10' E 015°34'0 0.0
2017-Mar-19 14:33N 56°10' E 015°34'0 0.0
2017-Mar-19 13:33N 56°10' E 015°34'0 0.0
2017-Mar-19 12:33N 56°10' E 015°34'0 0.0
2017-Mar-19 11:33N 56°10' E 015°34'0 0.0
2017-Mar-19 10:33N 56°10' E 015°34'0 0.0
2017-Mar-19 09:33N 56°10' E 015°34'0 0.0
2017-Mar-19 08:33N 56°10' E 015°34'0 0.0
2017-Mar-19 07:33N 56°10' E 015°34'0 0.0
2017-Mar-19 06:33N 56°10' E 015°34'0 0.0
2017-Mar-19 05:33N 56°10' E 015°34'0 0.0
2017-Mar-19 04:33N 56°10' E 015°34'0 0.0
2017-Mar-19 03:33N 56°10' E 015°34'0 0.0
2017-Mar-19 02:33N 56°10' E 015°34'0 0.0
2017-Mar-19 01:33N 56°10' E 015°34'0 0.0
2017-Mar-19 00:33N 56°10' E 015°34'0 0.0
2017-Mar-18 23:33N 56°10' E 015°34'0 0.0
2017-Mar-18 22:33N 56°10' E 015°34'0 0.0
2017-Mar-18 21:33N 56°10' E 015°34'0 0.0
2017-Mar-18 20:33N 56°10' E 015°34'0 0.0
2017-Mar-18 19:33N 56°10' E 015°34'0 0.0
2017-Mar-18 18:33N 56°10' E 015°34'0 0.0
2017-Mar-18 17:33N 56°10' E 015°34'0 0.0
2017-Mar-18 16:33N 56°10' E 015°34'0 0.0
2017-Mar-18 15:33N 56°10' E 015°34'0 0.0
2017-Mar-18 14:33N 56°10' E 015°34'0 0.0
2017-Mar-18 13:33N 56°10' E 015°34'0 0.0
2017-Mar-18 12:33N 56°10' E 015°34'0 0.0
2017-Mar-18 11:33N 56°10' E 015°34'0 0.0
2017-Mar-18 10:33N 56°10' E 015°34'0 0.0
2017-Mar-18 09:33N 56°10' E 015°34'0 0.0
2017-Mar-18 08:33N 56°10' E 015°34'0 0.0
2017-Mar-18 07:33N 56°10' E 015°34'0 0.0
2017-Mar-18 06:33N 56°10' E 015°34'0 0.0
2017-Mar-18 05:33N 56°10' E 015°34'0 0.0
2017-Mar-18 04:33N 56°10' E 015°34'0 0.0
2017-Mar-18 03:33N 56°10' E 015°34'0 0.0
2017-Mar-18 02:33N 56°10' E 015°34'0 0.0
2017-Mar-18 01:33N 56°10' E 015°34'0 0.0
2017-Mar-18 00:33N 56°10' E 015°34'0 0.0
2017-Mar-17 23:33N 56°10' E 015°34'0 0.0
2017-Mar-17 22:33N 56°10' E 015°34'0 0.0
2017-Mar-17 21:33N 56°10' E 015°34'0 0.0
2017-Mar-17 20:33N 56°10' E 015°34'0 0.0
2017-Mar-17 19:33N 56°10' E 015°34'0 0.0
2017-Mar-17 18:33N 56°10' E 015°34'0 0.0
2017-Mar-17 17:33N 56°10' E 015°34'0 0.0
2017-Mar-17 16:33N 56°10' E 015°34'0 0.0
2017-Mar-17 15:33N 56°10' E 015°34'0 0.0
2017-Mar-17 14:33N 56°10' E 015°34'0 0.0
2017-Mar-17 13:33N 56°10' E 015°34'0 0.0
2017-Mar-17 12:33N 56°10' E 015°34'0 0.0
2017-Mar-17 11:33N 56°10' E 015°34'0 0.0
2017-Mar-17 10:33N 56°10' E 015°34'0 0.0
2017-Mar-17 09:33N 56°10' E 015°34'0 0.0
2017-Mar-17 08:33N 56°10' E 015°34'0 0.0
2017-Mar-17 07:33N 56°10' E 015°34'0 0.0
2017-Mar-17 06:33N 56°10' E 015°34'0 0.0
2017-Mar-17 05:33N 56°10' E 015°34'0 0.0
2017-Mar-17 04:33N 56°10' E 015°34'0 0.0
2017-Mar-17 03:33N 56°10' E 015°34'0 0.0
2017-Mar-17 02:33N 56°10' E 015°34'0 0.0
2017-Mar-17 01:33N 56°10' E 015°34'0 0.0
2017-Mar-17 00:33N 56°10' E 015°34'0 0.0
2017-Mar-16 23:33N 56°10' E 015°34'0 0.0
2017-Mar-16 22:33N 56°10' E 015°34'0 0.0
2017-Mar-16 21:33N 56°10' E 015°34'0 0.0
2017-Mar-16 20:33N 56°10' E 015°34'0 0.0
2017-Mar-16 19:33N 56°10' E 015°34'0 0.0
2017-Mar-16 18:33N 56°10' E 015°34'0 0.0
2017-Mar-16 17:33N 56°10' E 015°34'0 0.0
2017-Mar-16 16:33N 56°10' E 015°34'0 0.0
2017-Mar-16 15:33N 56°10' E 015°34'0 0.0
2017-Mar-16 14:33N 56°10' E 015°34'0 0.0
2017-Mar-16 13:33N 56°10' E 015°34'0 0.0
2017-Mar-16 12:33N 56°10' E 015°34'0 0.0
2017-Mar-16 11:33N 56°10' E 015°34'0 0.0
2017-Mar-16 10:33N 56°10' E 015°34'0 0.0
2017-Mar-16 09:33N 56°10' E 015°34'0 0.0
2017-Mar-16 08:33N 56°10' E 015°34'0 0.0
2017-Mar-16 07:33N 56°10' E 015°34'0 0.0
2017-Mar-16 06:33N 56°10' E 015°34'0 0.0
2017-Mar-16 05:33N 56°10' E 015°34'0 0.0
2017-Mar-16 04:33N 56°10' E 015°34'0 0.0
2017-Mar-16 03:33N 56°10' E 015°34'0 0.0
2017-Mar-16 02:33N 56°10' E 015°34'0 0.0
2017-Mar-16 01:33N 56°10' E 015°34'0 0.0
2017-Mar-16 00:33N 56°10' E 015°34'0 0.0
2017-Mar-15 23:33N 56°10' E 015°34'0 0.0
2017-Mar-15 22:33N 56°10' E 015°34'0 0.0
2017-Mar-15 21:33N 56°10' E 015°34'0 0.0
2017-Mar-15 20:33N 56°10' E 015°34'0 0.0
2017-Mar-15 19:33N 56°10' E 015°34'0 0.0
2017-Mar-15 18:33N 56°10' E 015°34'0 0.0
2017-Mar-15 17:33N 56°10' E 015°34'0 0.0
2017-Mar-15 16:33N 56°10' E 015°34'0 0.0
2017-Mar-15 15:33N 56°10' E 015°34'0 0.0
2017-Mar-15 14:33N 56°10' E 015°34'0 0.0
2017-Mar-15 13:33N 56°10' E 015°34'  
Track history (hours):
 
Tides and Currents Weather Stations Pressure Air Temp Water Temp Dewpoint Dewpoint Depression Visibility Wind Speed Wind Dir Waves Ship Positions

Callsign SLRE (name unknown)

Last reported at 2017-Mar-25 13:12 UTC. Time now 2017-Mar-29 15:18 UTC.
Position N 56°00' E 015°44'.

AWS

Date/timePositionNaut miles runAvg speedWind from/ knotsBaromVisibWave heightAir tempDewpointWater temp
2017-Mar-25 13:12N 56°00' E 015°44'5 8.6
2017-Mar-25 12:33N 56°03' E 015°36'7 6.6
2017-Mar-25 11:33N 56°10' E 015°34'0 0.0
2017-Mar-25 10:33N 56°10' E 015°34'0 0.0
2017-Mar-25 09:33N 56°10' E 015°34'0 0.0
2017-Mar-25 08:33N 56°10' E 015°34'0 0.0
2017-Mar-25 07:33N 56°10' E 015°34'0 0.0
2017-Mar-25 06:33N 56°10' E 015°34'0 0.0
2017-Mar-25 05:33N 56°10' E 015°34'0 0.0
2017-Mar-25 04:33N 56°10' E 015°34'0 0.0
2017-Mar-25 03:33N 56°10' E 015°34'0 0.0
2017-Mar-25 02:33N 56°10' E 015°34'3 3.5
2017-Mar-25 01:33N 56°06' E 015°34'8 8.0
2017-Mar-25 00:33N 56°00' E 015°44'9 8.8
2017-Mar-24 23:33N 55°57' E 015°59'9 9.1
2017-Mar-24 22:33N 55°54' E 016°14'36 9.0
2017-Mar-24 18:33N 55°43' E 017°15'  
2017-Mar-20 20:33N 55°54' E 016°31'8 8.0
2017-Mar-20 19:33N 55°57' E 016°18'8 8.4
2017-Mar-20 18:33N 55°58' E 016°03'9 8.6
2017-Mar-20 17:33N 55°59' E 015°47'9 8.7
2017-Mar-20 16:33N 56°04' E 015°34'6 5.7
2017-Mar-20 15:33N 56°10' E 015°34'0 0.0
2017-Mar-20 14:33N 56°10' E 015°34'0 0.0
2017-Mar-20 13:33N 56°10' E 015°34'0 0.0
2017-Mar-20 12:33N 56°10' E 015°34'0 0.0
2017-Mar-20 11:33N 56°10' E 015°34'0 0.0
2017-Mar-20 10:33N 56°10' E 015°34'0 0.0
2017-Mar-20 09:33N 56°10' E 015°34'0 0.0
2017-Mar-20 08:33N 56°10' E 015°34'0 0.0
2017-Mar-20 07:33N 56°10' E 015°34'0 0.0
2017-Mar-20 06:33N 56°10' E 015°34'0 0.0
2017-Mar-20 05:33N 56°10' E 015°34'0 0.0
2017-Mar-20 04:33N 56°10' E 015°34'0 0.0
2017-Mar-20 03:33N 56°10' E 015°34'0 0.0
2017-Mar-20 02:33N 56°10' E 015°34'0 0.0
2017-Mar-20 01:33N 56°10' E 015°34'0 0.0
2017-Mar-20 00:33N 56°10' E 015°34'0 0.0
2017-Mar-19 23:33N 56°10' E 015°34'0 0.0
2017-Mar-19 22:33N 56°10' E 015°34'0 0.0
2017-Mar-19 21:33N 56°10' E 015°34'0 0.0
2017-Mar-19 20:33N 56°10' E 015°34'0 0.0
2017-Mar-19 19:33N 56°10' E 015°34'0 0.0
2017-Mar-19 18:33N 56°10' E 015°34'0 0.0
2017-Mar-19 17:33N 56°10' E 015°34'0 0.0
2017-Mar-19 16:33N 56°10' E 015°34'0 0.0
2017-Mar-19 15:33N 56°10' E 015°34'0 0.0
2017-Mar-19 14:33N 56°10' E 015°34'0 0.0
2017-Mar-19 13:33N 56°10' E 015°34'0 0.0
2017-Mar-19 12:33N 56°10' E 015°34'0 0.0
2017-Mar-19 11:33N 56°10' E 015°34'0 0.0
2017-Mar-19 10:33N 56°10' E 015°34'0 0.0
2017-Mar-19 09:33N 56°10' E 015°34'0 0.0
2017-Mar-19 08:33N 56°10' E 015°34'0 0.0
2017-Mar-19 07:33N 56°10' E 015°34'0 0.0
2017-Mar-19 06:33N 56°10' E 015°34'0 0.0
2017-Mar-19 05:33N 56°10' E 015°34'0 0.0
2017-Mar-19 04:33N 56°10' E 015°34'0 0.0
2017-Mar-19 03:33N 56°10' E 015°34'0 0.0
2017-Mar-19 02:33N 56°10' E 015°34'0 0.0
2017-Mar-19 01:33N 56°10' E 015°34'0 0.0
2017-Mar-19 00:33N 56°10' E 015°34'0 0.0
2017-Mar-18 23:33N 56°10' E 015°34'0 0.0
2017-Mar-18 22:33N 56°10' E 015°34'0 0.0
2017-Mar-18 21:33N 56°10' E 015°34'0 0.0
2017-Mar-18 20:33N 56°10' E 015°34'0 0.0
2017-Mar-18 19:33N 56°10' E 015°34'0 0.0
2017-Mar-18 18:33N 56°10' E 015°34'0 0.0
2017-Mar-18 17:33N 56°10' E 015°34'0 0.0
2017-Mar-18 16:33N 56°10' E 015°34'0 0.0
2017-Mar-18 15:33N 56°10' E 015°34'0 0.0
2017-Mar-18 14:33N 56°10' E 015°34'0 0.0
2017-Mar-18 13:33N 56°10' E 015°34'0 0.0
2017-Mar-18 12:33N 56°10' E 015°34'0 0.0
2017-Mar-18 11:33N 56°10' E 015°34'0 0.0
2017-Mar-18 10:33N 56°10' E 015°34'0 0.0
2017-Mar-18 09:33N 56°10' E 015°34'0 0.0
2017-Mar-18 08:33N 56°10' E 015°34'0 0.0
2017-Mar-18 07:33N 56°10' E 015°34'0 0.0
2017-Mar-18 06:33N 56°10' E 015°34'0 0.0
2017-Mar-18 05:33N 56°10' E 015°34'0 0.0
2017-Mar-18 04:33N 56°10' E 015°34'0 0.0
2017-Mar-18 03:33N 56°10' E 015°34'0 0.0
2017-Mar-18 02:33N 56°10' E 015°34'0 0.0
2017-Mar-18 01:33N 56°10' E 015°34'0 0.0
2017-Mar-18 00:33N 56°10' E 015°34'0 0.0
2017-Mar-17 23:33N 56°10' E 015°34'0 0.0
2017-Mar-17 22:33N 56°10' E 015°34'0 0.0
2017-Mar-17 21:33N 56°10' E 015°34'0 0.0
2017-Mar-17 20:33N 56°10' E 015°34'0 0.0
2017-Mar-17 19:33N 56°10' E 015°34'0 0.0
2017-Mar-17 18:33N 56°10' E 015°34'0 0.0
2017-Mar-17 17:33N 56°10' E 015°34'0 0.0
2017-Mar-17 16:33N 56°10' E 015°34'0 0.0
2017-Mar-17 15:33N 56°10' E 015°34'0 0.0
2017-Mar-17 14:33N 56°10' E 015°34'0 0.0
2017-Mar-17 13:33N 56°10' E 015°34'0 0.0
2017-Mar-17 12:33N 56°10' E 015°34'0 0.0
2017-Mar-17 11:33N 56°10' E 015°34'0 0.0
2017-Mar-17 10:33N 56°10' E 015°34'0 0.0
2017-Mar-17 09:33N 56°10' E 015°34'0 0.0
2017-Mar-17 08:33N 56°10' E 015°34'0 0.0
2017-Mar-17 07:33N 56°10' E 015°34'0 0.0
2017-Mar-17 06:33N 56°10' E 015°34'0 0.0
2017-Mar-17 05:33N 56°10' E 015°34'0 0.0
2017-Mar-17 04:33N 56°10' E 015°34'0 0.0
2017-Mar-17 03:33N 56°10' E 015°34'0 0.0
2017-Mar-17 02:33N 56°10' E 015°34'0 0.0
2017-Mar-17 01:33N 56°10' E 015°34'0 0.0
2017-Mar-17 00:33N 56°10' E 015°34'0 0.0
2017-Mar-16 23:33N 56°10' E 015°34'0 0.0
2017-Mar-16 22:33N 56°10' E 015°34'0 0.0
2017-Mar-16 21:33N 56°10' E 015°34'0 0.0
2017-Mar-16 20:33N 56°10' E 015°34'0 0.0
2017-Mar-16 19:33N 56°10' E 015°34'0 0.0
2017-Mar-16 18:33N 56°10' E 015°34'0 0.0
2017-Mar-16 17:33N 56°10' E 015°34'0 0.0
2017-Mar-16 16:33N 56°10' E 015°34'0 0.0
2017-Mar-16 15:33N 56°10' E 015°34'0 0.0
2017-Mar-16 14:33N 56°10' E 015°34'0 0.0
2017-Mar-16 13:33N 56°10' E 015°34'0 0.0
2017-Mar-16 12:33N 56°10' E 015°34'0 0.0
2017-Mar-16 11:33N 56°10' E 015°34'0 0.0
2017-Mar-16 10:33N 56°10' E 015°34'0 0.0
2017-Mar-16 09:33N 56°10' E 015°34'0 0.0
2017-Mar-16 08:33N 56°10' E 015°34'0 0.0
2017-Mar-16 07:33N 56°10' E 015°34'0 0.0
2017-Mar-16 06:33N 56°10' E 015°34'0 0.0
2017-Mar-16 05:33N 56°10' E 015°34'0 0.0
2017-Mar-16 04:33N 56°10' E 015°34'0 0.0
2017-Mar-16 03:33N 56°10' E 015°34'0 0.0
2017-Mar-16 02:33N 56°10' E 015°34'0 0.0
2017-Mar-16 01:33N 56°10' E 015°34'0 0.0
2017-Mar-16 00:33N 56°10' E 015°34'0 0.0
2017-Mar-15 23:33N 56°10' E 015°34'0 0.0
2017-Mar-15 22:33N 56°10' E 015°34'0 0.0
2017-Mar-15 21:33N 56°10' E 015°34'0 0.0
2017-Mar-15 20:33N 56°10' E 015°34'0 0.0
2017-Mar-15 19:33N 56°10' E 015°34'0 0.0
2017-Mar-15 18:33N 56°10' E 015°34'0 0.0
2017-Mar-15 17:33N 56°10' E 015°34'0 0.0
2017-Mar-15 16:33N 56°10' E 015°34'0 0.0
2017-Mar-15 15:33N 56°10' E 015°34'0 0.0
2017-Mar-15 14:33N 56°10' E 015°34'0 0.0
2017-Mar-15 13:33N 56°10' E 015°34'  

Dump ship's entire track history